Time;durP1;ratioP1;P1;durP2;ratioP2;P2;SDS_P1;SDS_P2;PMS_P1;PMS_P2;Temp;Humidity;BMP_temperature;BMP_pressure;BME280_temperature;BME280_humidity;BME280_pressure;Samples;Min_cycle;Max_cycle;Signal;HPM_P1;HPM_P2
2024/04/06 00:00:53;;;;;;;;;;;;;;;16.97;47.80;101269.66;5056331;28;1114;-45
2024/04/06 00:03:18;;;;;;;;;;;;;;;16.75;47.31;101272.47;5056440;28;1012;-47
2024/04/06 00:05:44;;;;;;;;;;;;;;;16.55;46.98;101265.72;5056308;28;1973;-47
2024/04/06 00:08:10;;;;;;;;;;;;;;;16.37;46.53;101261.44;5056237;28;1154;-45
2024/04/06 00:10:35;;;;;;;;;;;;;;;16.90;46.78;101263.53;5056484;28;1122;-47
2024/04/06 00:13:01;;;;;;;;;;;;;;;17.37;47.42;101265.47;5059160;28;1063;-46
2024/04/06 00:15:29;;;;;;;;;;;;;;;16.76;47.44;101279.63;5065633;28;895;-47
2024/04/06 00:17:55;;;;;;;;;;;;;;;16.57;47.11;101281.94;5056783;28;1155;-48
2024/04/06 00:20:21;;;;;;;;;;;;;;;16.79;47.12;101286.50;5056178;28;1079;-46
2024/04/06 00:22:46;;;;;;;;;;;;;;;17.35;47.49;101284.16;5055821;28;1072;-46
2024/04/06 00:25:12;;;;;;;;;;;;;;;16.77;47.70;101281.25;5065871;28;1973;-48
2024/04/06 00:27:37;;;;;;;;;;;;;;;16.76;47.68;101274.13;5058694;28;954;-48
2024/04/06 00:30:03;;;;;;;;;;;;;;;17.27;47.71;101269.00;5056069;28;1076;-48
2024/04/06 00:32:29;;;;;;;;;;;;;;;16.82;47.60;101266.75;5055987;28;1063;-48
2024/04/06 00:34:54;;;;;;;;;;;;;;;16.67;47.08;101268.28;5055983;28;1064;-50
2024/04/06 00:37:20;;;;;;;;;;;;;;;16.43;46.66;101260.38;5055783;28;969;-46
2024/04/06 00:39:45;;;;;;;;;;;;;;;17.38;47.14;101272.63;5056244;28;890;-46
2024/04/06 00:42:11;;;;;;;;;;;;;;;16.94;47.98;101275.66;5055639;28;1103;-46
2024/04/06 00:44:36;;;;;;;;;;;;;;;16.54;47.50;101280.53;5038476;28;1961;-49
2024/04/06 00:47:02;;;;;;;;;;;;;;;17.74;47.07;101289.31;5069044;28;1135;-47
2024/04/06 00:49:28;;;;;;;;;;;;;;;16.95;47.84;101303.97;5055802;28;1020;-47
2024/04/06 00:51:54;;;;;;;;;;;;;;;16.72;47.38;101304.03;5055754;28;1060;-49
2024/04/06 00:54:19;;;;;;;;;;;;;;;17.41;47.33;101312.50;5064878;28;1107;-48
2024/04/06 00:56:48;;;;;;;;;;;;;;;17.09;47.78;101307.91;5059362;28;1055;-47
2024/04/06 00:59:14;;;;;;;;;;;;;;;16.71;47.60;101312.53;5065683;28;1123;-50
2024/04/06 01:01:40;;;;;;;;;;;;;;;16.49;46.96;101301.63;5059325;28;1069;-49
2024/04/06 01:04:05;;;;;;;;;;;;;;;17.40;47.08;101306.19;5055380;28;1069;-49
2024/04/06 01:06:31;;;;;;;;;;;;;;;17.19;47.68;101312.66;5058408;28;1910;-48
2024/04/06 01:08:56;;;;;;;;;;;;;;;16.74;47.63;101315.56;5041894;28;1052;-46
2024/04/06 01:11:22;;;;;;;;;;;;;;;16.68;46.64;101322.13;5059820;28;1437;-49
2024/04/06 01:13:47;;;;;;;;;;;;;;;16.46;46.65;101321.38;5059792;28;1150;-47
2024/04/06 01:16:13;;;;;;;;;;;;;;;16.39;46.24;101307.84;5059404;28;1039;-48
2024/04/06 01:18:38;;;;;;;;;;;;;;;16.41;45.95;101311.97;5042148;28;1056;-48
2024/04/06 01:21:05;;;;;;;;;;;;;;;17.68;46.69;101317.88;5059822;28;1102;-46
2024/04/06 01:23:31;;;;;;;;;;;;;;;16.85;47.65;101312.94;5059276;28;1122;-49
2024/04/06 01:25:56;;;;;;;;;;;;;;;16.62;46.97;101316.84;5059210;28;1914;-48
2024/04/06 01:28:22;;;;;;;;;;;;;;;16.47;46.55;101315.59;5059073;28;1035;-47
2024/04/06 01:30:47;;;;;;;;;;;;;;;16.34;46.13;101319.59;5059214;28;1084;-46
2024/04/06 01:33:13;;;;;;;;;;;;;;;16.32;45.75;101319.00;5059752;28;1077;-49
2024/04/06 01:35:39;;;;;;;;;;;;;;;16.17;45.68;101316.97;5061462;28;1131;-47
2024/04/06 01:38:04;;;;;;;;;;;;;;;17.65;46.15;101312.09;5069975;28;1416;-50
2024/04/06 01:40:31;;;;;;;;;;;;;;;16.66;47.56;101313.31;5058814;28;1020;-46
2024/04/06 01:42:56;;;;;;;;;;;;;;;16.46;47.33;101315.88;5059280;28;1076;-48
2024/04/06 01:45:22;;;;;;;;;;;;;;;17.70;46.85;101320.38;5059217;28;1994;-50
2024/04/06 01:47:47;;;;;;;;;;;;;;;16.90;48.10;101318.47;5059104;28;1152;-49
2024/04/06 01:50:13;;;;;;;;;;;;;;;16.60;47.69;101314.34;5071984;28;1115;-45
2024/04/06 01:52:39;;;;;;;;;;;;;;;16.68;47.28;101313.88;5059076;28;1119;-47
2024/04/06 01:55:05;;;;;;;;;;;;;;;17.69;47.20;101318.72;5059876;28;916;-47
2024/04/06 01:57:30;;;;;;;;;;;;;;;16.80;48.01;101308.19;5058417;28;1076;-47
2024/04/06 01:59:57;;;;;;;;;;;;;;;16.64;47.24;101306.44;5058934;28;1231;-49
2024/04/06 02:02:23;;;;;;;;;;;;;;;17.65;47.26;101301.09;5058631;28;1194;-50
2024/04/06 02:04:49;;;;;;;;;;;;;;;16.87;47.92;101297.00;5058857;28;1909;-46
2024/04/06 02:07:15;;;;;;;;;;;;;;;16.70;47.23;101295.22;5058867;28;1127;-49
2024/04/06 02:09:41;;;;;;;;;;;;;;;16.72;46.68;101300.47;5058018;28;1000;-50
2024/04/06 02:12:07;;;;;;;;;;;;;;;17.35;47.60;101297.91;5058794;28;1126;-47
2024/04/06 02:14:32;;;;;;;;;;;;;;;16.81;47.56;101298.88;5071275;28;1079;-50
2024/04/06 02:16:59;;;;;;;;;;;;;;;16.62;46.86;101295.72;5057072;28;1000;-49
2024/04/06 02:19:24;;;;;;;;;;;;;;;17.42;47.14;101292.19;5058011;28;1143;-46
2024/04/06 02:21:50;;;;;;;;;;;;;;;17.20;47.72;101286.81;5058521;28;1039;-49
2024/04/06 02:24:18;;;;;;;;;;;;;;;16.73;47.57;101291.97;5059033;28;1224;-49
2024/04/06 02:26:44;;;;;;;;;;;;;;;16.57;46.81;101282.75;5069715;28;1972;-45
2024/04/06 02:29:10;;;;;;;;;;;;;;;16.37;46.83;101288.06;5057896;28;1071;-50
2024/04/06 02:31:38;;;;;;;;;;;;;;;17.32;46.74;101290.22;5058477;28;1155;-50
2024/04/06 02:34:04;;;;;;;;;;;;;;;16.98;47.63;101268.53;5058229;28;1071;-48
2024/04/06 02:36:29;;;;;;;;;;;;;;;16.70;47.05;101278.72;5058424;28;1091;-47
2024/04/06 02:38:55;;;;;;;;;;;;;;;17.56;46.90;101292.53;5057664;28;1051;-49
2024/04/06 02:41:21;;;;;;;;;;;;;;;16.89;47.27;101279.19;5058528;28;1071;-46
2024/04/06 02:43:46;;;;;;;;;;;;;;;16.62;46.89;101278.38;5057695;28;1493;-50
2024/04/06 02:46:12;;;;;;;;;;;;;;;18.10;46.30;101275.69;5058074;28;1914;-48
2024/04/06 02:48:38;;;;;;;;;;;;;;;17.07;47.93;101275.22;5058037;28;1096;-48
2024/04/06 02:51:03;;;;;;;;;;;;;;;16.79;47.20;101275.50;5057302;28;1076;-47
2024/04/06 02:53:29;;;;;;;;;;;;;;;16.70;46.68;101281.47;5057565;28;1048;-46
2024/04/06 02:55:55;;;;;;;;;;;;;;;16.84;46.99;101270.88;5057720;28;1123;-46
2024/04/06 02:58:21;;;;;;;;;;;;;;;17.28;47.54;101269.84;5058169;28;1264;-48
2024/04/06 03:00:47;;;;;;;;;;;;;;;16.80;47.58;101263.44;5057390;28;1132;-49
2024/04/06 03:03:13;;;;;;;;;;;;;;;16.67;47.06;101257.28;5057051;28;1091;-47
2024/04/06 03:05:39;;;;;;;;;;;;;;;16.50;46.42;101253.88;5057324;28;1953;-49
2024/04/06 03:08:05;;;;;;;;;;;;;;;16.40;45.87;101255.44;5057133;28;1060;-49
2024/04/06 03:10:30;;;;;;;;;;;;;;;16.39;45.73;101253.75;5057251;28;1035;-46
2024/04/06 03:12:56;;;;;;;;;;;;;;;16.28;45.49;101262.16;5057237;28;1055;-49
2024/04/06 03:15:21;;;;;;;;;;;;;;;17.58;46.29;101260.91;5057161;28;1067;-48
2024/04/06 03:17:47;;;;;;;;;;;;;;;16.70;47.42;101259.50;5057400;28;1083;-49
2024/04/06 03:20:12;;;;;;;;;;;;;;;16.51;47.01;101261.84;5057264;28;1157;-50
2024/04/06 03:22:38;;;;;;;;;;;;;;;17.40;47.07;101267.72;5057232;28;1056;-51
2024/04/06 03:25:04;;;;;;;;;;;;;;;16.74;47.72;101274.38;5057726;28;1905;-46
2024/04/06 03:27:29;;;;;;;;;;;;;;;16.55;46.96;101276.72;5056871;28;1226;-48
2024/04/06 03:29:55;;;;;;;;;;;;;;;16.44;46.34;101266.72;5057221;28;1206;-45
2024/04/06 03:32:21;;;;;;;;;;;;;;;16.39;46.05;101264.75;5052473;28;1380;-48
2024/04/06 03:34:46;;;;;;;;;;;;;;;16.40;46.21;101263.66;5055685;28;1324;-51
2024/04/06 03:37:12;;;;;;;;;;;;;;;17.16;47.03;101272.78;5056953;28;1098;-49
2024/04/06 03:39:37;;;;;;;;;;;;;;;16.64;47.31;101271.56;5051672;28;1104;-47
2024/04/06 03:42:03;;;;;;;;;;;;;;;17.38;47.13;101263.56;5055865;28;1100;-50
2024/04/06 03:44:29;;;;;;;;;;;;;;;17.10;47.41;101260.94;5056452;28;1985;-50
2024/04/06 03:46:54;;;;;;;;;;;;;;;17.09;47.48;101264.75;5056992;28;1055;-48
2024/04/06 03:49:20;;;;;;;;;;;;;;;18.11;46.65;101269.06;5054843;28;1357;-44
2024/04/06 03:51:45;;;;;;;;;;;;;;;17.10;47.90;101266.44;5056469;28;1103;-49
2024/04/06 03:54:11;;;;;;;;;;;;;;;16.75;47.79;101267.78;5049108;28;1375;-46
2024/04/06 03:56:37;;;;;;;;;;;;;;;16.88;47.86;101271.19;5056906;28;1213;-50
2024/04/06 03:59:02;;;;;;;;;;;;;;;17.72;47.49;101268.66;5057248;28;1111;-50
2024/04/06 04:01:28;;;;;;;;;;;;;;;17.05;47.98;101266.38;5055914;28;1108;-50
2024/04/06 04:03:54;;;;;;;;;;;;;;;16.79;47.47;101265.38;5063910;28;1082;-50
2024/04/06 04:06:19;;;;;;;;;;;;;;;17.77;47.55;101271.44;5062087;28;1970;-49
2024/04/06 04:08:45;;;;;;;;;;;;;;;16.28;50.28;101268.47;5064718;28;1110;-51
2024/04/06 04:11:12;;;;;;;;;;;;;;;16.97;49.19;101266.06;5051323;28;1412;-47
2024/04/06 04:13:37;;;;;;;;;;;;;;;16.95;49.12;101265.50;5064994;28;1008;-46
2024/04/06 04:16:04;;;;;;;;;;;;;;;16.75;49.60;101262.31;5062298;28;1007;-49
2024/04/06 04:18:29;;;;;;;;;;;;;;;16.62;49.79;101267.41;5056665;28;1127;-51
2024/04/06 04:20:55;;;;;;;;;;;;;;;16.48;50.25;101272.50;5059070;28;1114;-50
2024/04/06 04:23:20;;;;;;;;;;;;;;;16.41;50.35;101257.09;5056567;28;1071;-49
2024/04/06 04:25:46;;;;;;;;;;;;;;;16.27;50.42;101266.84;5069685;28;1913;-51
2024/04/06 04:28:11;;;;;;;;;;;;;;;16.13;50.83;101266.44;5065377;28;927;-46
2024/04/06 04:30:37;;;;;;;;;;;;;;;16.10;50.84;101263.34;5074993;28;1019;-51
2024/04/06 04:33:03;;;;;;;;;;;;;;;16.07;51.15;101272.94;5064416;28;1214;-49
2024/04/06 04:35:28;;;;;;;;;;;;;;;15.92;51.20;101270.84;5063113;28;905;-48
2024/04/06 04:37:54;;;;;;;;;;;;;;;16.05;51.24;101275.13;5067092;28;1222;-51
2024/04/06 04:40:20;;;;;;;;;;;;;;;17.61;47.33;101268.63;5061392;28;1485;-50
2024/04/06 04:42:46;;;;;;;;;;;;;;;16.97;48.91;101271.56;5070226;28;970;-51
2024/04/06 04:45:15;;;;;;;;;;;;;;;16.54;50.11;101266.81;5060409;28;1909;-47
2024/04/06 04:47:41;;;;;;;;;;;;;;;16.29;50.69;101263.84;5065096;28;1072;-48
2024/04/06 04:50:08;;;;;;;;;;;;;;;16.18;50.75;101263.72;5074733;28;1169;-49
2024/04/06 04:52:34;;;;;;;;;;;;;;;15.98;51.38;101269.81;5058313;28;864;-48
2024/04/06 04:55:00;;;;;;;;;;;;;;;16.28;50.73;101268.47;5057551;28;1139;-50
2024/04/06 04:57:25;;;;;;;;;;;;;;;17.76;47.32;101267.84;5066194;28;1046;-48
2024/04/06 04:59:51;;;;;;;;;;;;;;;16.98;48.76;101253.97;5055454;28;1122;-51
2024/04/06 05:02:16;;;;;;;;;;;;;;;16.52;50.10;101265.41;5062236;28;2730;-48
2024/04/06 05:04:42;;;;;;;;;;;;;;;16.32;50.67;101264.13;5069538;28;1910;-51
2024/04/06 05:07:08;;;;;;;;;;;;;;;16.18;50.94;101273.88;5062536;28;1295;-49
2024/04/06 05:09:33;;;;;;;;;;;;;;;16.18;50.98;101279.38;5074518;28;983;-49
2024/04/06 05:11:59;;;;;;;;;;;;;;;17.64;47.73;101283.75;5075261;28;1043;-49
2024/04/06 05:14:24;;;;;;;;;;;;;;;17.01;48.78;101279.03;5073341;28;1131;-48
2024/04/06 05:16:50;;;;;;;;;;;;;;;16.51;50.21;101282.97;5054969;28;988;-51
2024/04/06 05:19:16;;;;;;;;;;;;;;;16.36;50.77;101286.41;5059860;28;1278;-49
2024/04/06 05:21:41;;;;;;;;;;;;;;;16.22;51.10;101292.28;5045752;28;1559;-50
2024/04/06 05:24:08;;;;;;;;;;;;;;;16.16;51.20;101292.50;5048456;28;1287;-50
2024/04/06 05:26:33;;;;;;;;;;;;;;;17.70;47.66;101296.44;5059941;28;1921;-49
2024/04/06 05:28:59;;;;;;;;;;;;;;;17.09;48.93;101289.50;5063083;28;1027;-49
2024/04/06 05:31:25;;;;;;;;;;;;;;;16.57;50.05;101299.22;5068803;28;2361;-50
2024/04/06 05:33:50;;;;;;;;;;;;;;;16.37;50.61;101294.38;5068652;28;1000;-50
2024/04/06 05:36:16;;;;;;;;;;;;;;;16.30;50.95;101288.28;5075163;28;1094;-49
2024/04/06 05:38:42;;;;;;;;;;;;;;;16.15;51.27;101288.13;5062199;28;1095;-49
2024/04/06 05:41:08;;;;;;;;;;;;;;;16.03;51.46;101288.25;5062862;28;1021;-49
2024/04/06 05:43:34;;;;;;;;;;;;;;;16.47;50.88;101288.16;5039976;28;1210;-48
2024/04/06 05:46:02;;;;;;;;;;;;;;;17.82;47.38;101296.19;5042142;28;1909;-53
2024/04/06 05:48:28;;;;;;;;;;;;;;;16.95;49.21;101290.22;5054861;28;1052;-49
2024/04/06 05:50:53;;;;;;;;;;;;;;;16.61;50.46;101294.06;5067793;28;992;-50
2024/04/06 05:53:19;;;;;;;;;;;;;;;16.42;50.54;101297.19;5069513;28;1161;-51
2024/04/06 05:55:45;;;;;;;;;;;;;;;16.24;51.33;101294.78;5070039;28;1027;-49
2024/04/06 05:58:11;;;;;;;;;;;;;;;16.16;51.27;101300.72;5065700;28;1087;-52
2024/04/06 06:00:37;;;;;;;;;;;;;;;17.41;48.20;101296.03;5069845;28;2197;-48
2024/04/06 06:03:02;;;;;;;;;;;;;;;17.24;48.53;101290.69;5058510;28;1206;-48
2024/04/06 06:05:28;;;;;;;;;;;;;;;16.70;49.86;101292.47;5066547;28;2038;-50
2024/04/06 06:07:53;;;;;;;;;;;;;;;16.55;50.42;101292.31;5079139;28;1012;-50
2024/04/06 06:10:19;;;;;;;;;;;;;;;16.33;50.84;101284.19;5065179;28;1084;-45
2024/04/06 06:12:44;;;;;;;;;;;;;;;16.20;51.45;101296.38;5078246;28;1019;-52
2024/04/06 06:15:11;;;;;;;;;;;;;;;16.07;51.61;101297.63;5078008;28;1035;-50
2024/04/06 06:17:37;;;;;;;;;;;;;;;17.51;48.47;101295.25;5075020;28;901;-52
2024/04/06 06:20:05;;;;;;;;;;;;;;;17.32;48.52;101295.69;5074006;28;1043;-48
2024/04/06 06:22:30;;;;;;;;;;;;;;;16.80;50.01;101296.41;5069445;28;1115;-51
2024/04/06 06:24:56;;;;;;;;;;;;;;;16.55;50.47;101304.16;5077612;28;1902;-50
2024/04/06 06:27:22;;;;;;;;;;;;;;;16.41;51.05;101300.16;5077923;28;1020;-47
2024/04/06 06:29:47;;;;;;;;;;;;;;;16.22;51.32;101303.28;5068403;28;1043;-50
2024/04/06 06:32:13;;;;;;;;;;;;;;;17.02;49.64;101312.81;5074579;28;2492;-53
2024/04/06 06:34:38;;;;;;;;;;;;;;;17.43;48.50;101316.66;5072592;28;1062;-49
2024/04/06 06:37:04;;;;;;;;;;;;;;;16.79;50.24;101316.69;5069474;28;1028;-51
2024/04/06 06:39:30;;;;;;;;;;;;;;;16.53;50.79;101316.47;5077738;28;1023;-49
2024/04/06 06:41:55;;;;;;;;;;;;;;;16.37;51.34;101315.50;5075564;28;1199;-48
2024/04/06 06:44:21;;;;;;;;;;;;;;;16.33;51.07;101315.19;5073144;28;1023;-46
2024/04/06 06:46:47;;;;;;;;;;;;;;;16.14;51.86;101316.63;5069188;28;1980;-50
2024/04/06 06:49:13;;;;;;;;;;;;;;;16.10;52.11;101318.22;5077288;28;1126;-46
2024/04/06 06:51:38;;;;;;;;;;;;;;;17.60;48.47;101326.66;5077815;28;995;-49
2024/04/06 06:54:04;;;;;;;;;;;;;;;17.18;49.23;101321.97;5066073;28;1050;-51
2024/04/06 06:56:30;;;;;;;;;;;;;;;16.76;50.35;101329.88;5078266;28;1047;-48
2024/04/06 06:58:55;;;;;;;;;;;;;;;16.54;50.94;101326.38;5073394;28;1071;-46
2024/04/06 07:01:22;;;;;;;;;;;;;;;16.36;51.58;101327.56;5070761;28;2431;-45
2024/04/06 07:03:47;;;;;;;;;;;;;;;16.21;51.84;101328.22;5056674;28;1024;-47
2024/04/06 07:06:13;;;;;;;;;;;;;;;16.16;51.70;101330.91;5072730;28;1979;-47
2024/04/06 07:08:42;;;;;;;;;;;;;;;17.28;49.24;101324.81;5077305;28;1011;-49
2024/04/06 07:11:07;;;;;;;;;;;;;;;17.44;48.74;101328.47;5077079;28;983;-48
2024/04/06 07:13:33;;;;;;;;;;;;;;;16.83;50.21;101328.81;5076920;28;1101;-46
2024/04/06 07:16:06;;;;;;;;;;;;;;;16.49;51.13;101323.56;5050729;28;1114;-50
2024/04/06 07:18:32;;;;;;;;;;;;;;;16.31;51.69;101325.59;5064115;28;876;-50
2024/04/06 07:20:58;;;;;;;;;;;;;;;16.29;51.55;101319.53;5069759;28;1039;-50
2024/04/06 07:23:24;;;;;;;;;;;;;;;16.18;51.94;101326.81;5075684;28;996;-50
2024/04/06 07:25:50;;;;;;;;;;;;;;;16.99;50.15;101316.91;5075193;28;1913;-50
2024/04/06 07:28:16;;;;;;;;;;;;;;;17.75;47.94;101307.47;5063868;28;1548;-49
2024/04/06 07:30:42;;;;;;;;;;;;;;;16.99;49.95;101316.09;5056517;28;2431;-50
2024/04/06 07:33:07;;;;;;;;;;;;;;;16.63;50.81;101318.50;5041812;28;1298;-50
2024/04/06 07:35:33;;;;;;;;;;;;;;;16.48;51.07;101316.41;5039624;28;1026;-50
2024/04/06 07:37:59;;;;;;;;;;;;;;;16.36;51.59;101319.34;5037710;28;1230;-49
2024/04/06 07:40:24;;;;;;;;;;;;;;;16.27;51.66;101313.50;5040157;28;1463;-46
2024/04/06 07:42:51;;;;;;;;;;;;;;;16.48;51.54;101306.28;5042555;28;1259;-48
2024/04/06 07:45:17;;;;;;;;;;;;;;;17.89;47.86;101306.97;5036607;28;1981;-51
2024/04/06 07:47:42;;;;;;;;;;;;;;;17.19;49.40;101318.16;5038890;28;1512;-48
2024/04/06 07:50:08;;;;;;;;;;;;;;;16.83;50.42;101315.09;5038806;28;1207;-51
2024/04/06 07:52:34;;;;;;;;;;;;;;;16.64;50.83;101322.91;5038261;28;1242;-49
2024/04/06 07:55:00;;;;;;;;;;;;;;;16.46;51.25;101313.13;5041712;28;982;-50
2024/04/06 07:57:25;;;;;;;;;;;;;;;16.38;51.55;101311.66;5036821;28;1168;-46
2024/04/06 07:59:51;;;;;;;;;;;;;;;16.25;51.84;101307.41;5022203;28;1220;-49
2024/04/06 08:02:16;;;;;;;;;;;;;;;16.13;52.46;101306.72;5046208;28;2406;-50
2024/04/06 08:04:42;;;;;;;;;;;;;;;17.58;48.79;101301.31;5038305;28;1986;-47
2024/04/06 08:07:07;;;;;;;;;;;;;;;17.26;49.27;101299.50;5040210;28;986;-52
2024/04/06 08:09:35;;;;;;;;;;;;;;;16.79;50.52;101289.22;5038915;28;1223;-50
2024/04/06 08:12:01;;;;;;;;;;;;;;;16.54;51.16;101293.44;5066195;28;973;-46
2024/04/06 08:14:27;;;;;;;;;;;;;;;16.41;51.51;101294.66;5075848;28;1038;-49
2024/04/06 08:16:52;;;;;;;;;;;;;;;16.38;51.53;101289.72;5076793;28;999;-51
2024/04/06 08:19:18;;;;;;;;;;;;;;;16.28;52.13;101275.91;5069077;28;935;-47
2024/04/06 08:21:44;;;;;;;;;;;;;;;16.24;52.17;101283.81;5066317;28;1521;-47
2024/04/06 08:24:10;;;;;;;;;;;;;;;17.71;48.55;101287.09;5062633;28;1104;-49
2024/04/06 08:26:36;;;;;;;;;;;;;;;17.22;49.36;101281.88;5065888;28;1909;-49
2024/04/06 08:29:02;;;;;;;;;;;;;;;16.80;50.48;101283.47;5058916;28;1079;-52
2024/04/06 08:31:28;;;;;;;;;;;;;;;16.61;51.23;101274.84;5056373;28;2182;-49
2024/04/06 08:33:53;;;;;;;;;;;;;;;16.39;51.78;101270.22;5072169;28;1004;-45
2024/04/06 08:36:19;;;;;;;;;;;;;;;16.30;52.10;101270.97;5076163;28;1043;-48
2024/04/06 08:38:44;;;;;;;;;;;;;;;16.21;52.17;101267.88;5075401;28;1000;-48
2024/04/06 08:41:10;;;;;;;;;;;;;;;16.54;51.32;101266.81;5074370;28;1235;-49
2024/04/06 08:43:36;;;;;;;;;;;;;;;17.68;48.57;101268.34;5072069;28;980;-49
2024/04/06 08:46:03;;;;;;;;;;;;;;;16.97;50.21;101260.56;5076158;28;1906;-50
2024/04/06 08:48:28;;;;;;;;;;;;;;;16.62;51.00;101262.75;5057829;28;1339;-47
2024/04/06 08:50:54;;;;;;;;;;;;;;;16.50;51.48;101260.19;5075983;28;1004;-51
2024/04/06 08:53:21;;;;;;;;;;;;;;;16.35;51.64;101258.13;5055401;28;1019;-50
2024/04/06 08:55:46;;;;;;;;;;;;;;;16.29;52.10;101252.84;5065602;28;1009;-46
2024/04/06 08:58:12;;;;;;;;;;;;;;;16.17;52.28;101253.84;5075248;28;1034;-47
2024/04/06 09:00:38;;;;;;;;;;;;;;;17.67;48.76;101250.22;5072116;28;2568;-48
2024/04/06 09:03:05;;;;;;;;;;;;;;;17.28;49.30;101242.34;5068875;28;1147;-47
2024/04/06 09:05:30;;;;;;;;;;;;;;;16.82;50.50;101242.03;5061231;28;1979;-48
2024/04/06 09:07:56;;;;;;;;;;;;;;;16.56;51.20;101241.84;5056679;28;1024;-50
2024/04/06 09:10:24;;;;;;;;;;;;;;;16.50;51.45;101237.41;5075502;28;1077;-50
2024/04/06 09:12:50;;;;;;;;;;;;;;;16.32;52.12;101233.94;5060778;28;1123;-50
2024/04/06 09:15:17;;;;;;;;;;;;;;;16.36;52.14;101237.81;5063553;28;1067;-49
2024/04/06 09:17:43;;;;;;;;;;;;;;;17.82;48.38;101241.19;5073446;28;968;-52
2024/04/06 09:20:08;;;;;;;;;;;;;;;17.11;50.06;101237.03;5067862;28;1023;-52
2024/04/06 09:22:34;;;;;;;;;;;;;;;16.79;50.90;101237.06;5070261;28;1024;-51
2024/04/06 09:25:04;;;;;;;;;;;;;;;16.56;51.44;101230.84;5075600;28;1905;-49
2024/04/06 09:27:31;;;;;;;;;;;;;;;16.41;51.71;101237.88;5076437;28;1098;-49
2024/04/06 09:29:57;;;;;;;;;;;;;;;16.29;52.32;101230.91;5063253;28;1121;-47
2024/04/06 09:32:23;;;;;;;;;;;;;;;16.20;52.29;101231.38;5078850;28;2502;-49
2024/04/06 09:34:49;;;;;;;;;;;;;;;16.17;52.27;101220.06;5078796;28;1015;-49
2024/04/06 09:37:14;;;;;;;;;;;;;;;16.10;52.49;101227.69;5065766;28;1103;-46
2024/04/06 09:39:40;;;;;;;;;;;;;;;16.05;52.80;101221.06;5053034;28;1051;-46
2024/04/06 09:42:05;;;;;;;;;;;;;;;17.44;49.46;101222.06;5053516;28;1232;-47
2024/04/06 09:44:31;;;;;;;;;;;;;;;17.41;49.35;101228.09;5049492;28;1052;-49
2024/04/06 09:46:57;;;;;;;;;;;;;;;16.82;50.83;101225.56;5064009;28;1910;-50
2024/04/06 09:49:23;;;;;;;;;;;;;;;16.53;51.88;101232.19;5067377;28;1567;-50
2024/04/06 09:51:49;;;;;;;;;;;;;;;16.42;52.12;101233.19;5048157;28;1167;-50
2024/04/06 09:54:14;;;;;;;;;;;;;;;16.27;52.42;101219.34;5072912;28;1063;-50
2024/04/06 09:56:40;;;;;;;;;;;;;;;16.22;52.40;101222.88;5061058;28;1000;-49
2024/04/06 09:59:05;;;;;;;;;;;;;;;16.18;52.62;101224.50;5052110;28;1179;-50
2024/04/06 10:01:31;;;;;;;;;;;;;;;16.16;52.75;101227.50;5060073;28;2342;-51
2024/04/06 10:03:57;;;;;;;;;;;;;;;17.55;49.30;101231.19;5064173;28;1031;-49
2024/04/06 10:06:25;;;;;;;;;;;;;;;17.23;49.81;101223.91;5041474;28;1989;-49
2024/04/06 10:08:58;;;;;;;;;;;;;;;16.73;51.33;101220.56;5070653;28;1118;-51
2024/04/06 10:11:24;;;;;;;;;;;;;;;16.52;51.90;101210.50;5065275;28;1293;-51
2024/04/06 10:13:56;;;;;;;;;;;;;;;16.45;52.00;101218.13;5041990;28;1222;-50
2024/04/06 10:16:22;;;;;;;;;;;;;;;16.29;52.13;101215.25;5040572;28;1149;-48
2024/04/06 10:18:48;;;;;;;;;;;;;;;16.32;52.50;101202.94;5043957;28;1247;-48
2024/04/06 10:21:16;;;;;;;;;;;;;;;17.78;48.91;101202.41;5028111;28;1338;-49
2024/04/06 10:23:45;;;;;;;;;;;;;;;17.26;49.83;101200.56;5020591;28;1180;-47
2024/04/06 10:26:16;;;;;;;;;;;;;;;16.79;51.06;101210.44;5049843;28;1914;-49
2024/04/06 10:28:45;;;;;;;;;;;;;;;16.57;51.65;101205.06;5045226;28;1216;-49
2024/04/06 10:31:10;;;;;;;;;;;;;;;16.40;52.03;101210.69;5049324;28;2383;-49
2024/04/06 10:33:37;;;;;;;;;;;;;;;16.26;52.36;101207.56;5047835;28;1242;-49
2024/04/06 10:36:03;;;;;;;;;;;;;;;16.17;52.70;101201.72;5046209;28;1195;-50
2024/04/06 10:38:28;;;;;;;;;;;;;;;16.17;52.70;101203.63;5040616;28;1385;-47
2024/04/06 10:40:54;;;;;;;;;;;;;;;17.49;49.68;101206.69;5022481;28;1474;-48
2024/04/06 10:43:19;;;;;;;;;;;;;;;17.27;49.87;101200.28;5040159;28;1290;-51
2024/04/06 10:45:51;;;;;;;;;;;;;;;16.77;51.15;101210.72;5038476;28;1979;-50
2024/04/06 10:48:17;;;;;;;;;;;;;;;16.60;51.69;101199.84;5041057;28;1538;-49
2024/04/06 10:50:43;;;;;;;;;;;;;;;16.42;52.21;101203.84;5039763;28;1498;-51
2024/04/06 10:53:08;;;;;;;;;;;;;;;16.29;52.42;101198.78;5040397;28;1355;-48
2024/04/06 10:55:34;;;;;;;;;;;;;;;16.25;52.69;101198.47;5029906;28;1286;-49
2024/04/06 10:57:59;;;;;;;;;;;;;;;16.14;52.66;101198.66;5042525;28;1369;-49
2024/04/06 11:00:26;;;;;;;;;;;;;;;16.14;52.83;101190.44;5041306;28;1822;-47
2024/04/06 11:02:52;;;;;;;;;;;;;;;17.62;49.44;101189.69;5039032;28;1206;-49
2024/04/06 11:05:17;;;;;;;;;;;;;;;17.07;50.60;101201.03;5040473;28;1967;-48
2024/04/06 11:07:43;;;;;;;;;;;;;;;16.67;51.59;101185.91;5040320;28;1195;-51
2024/04/06 11:10:11;;;;;;;;;;;;;;;16.39;52.31;101193.38;5037293;28;1065;-47
2024/04/06 11:12:38;;;;;;;;;;;;;;;16.36;52.25;101191.16;5042630;28;1223;-49
2024/04/06 11:15:03;;;;;;;;;;;;;;;16.26;52.41;101171.88;5044075;28;1076;-47
2024/04/06 11:17:29;;;;;;;;;;;;;;;16.17;52.75;101174.28;5070707;28;1012;-50
2024/04/06 11:19:55;;;;;;;;;;;;;;;17.10;50.77;101173.00;5070665;28;864;-51
2024/04/06 11:22:21;;;;;;;;;;;;;;;17.69;49.20;101165.50;5040899;28;1255;-50
2024/04/06 11:24:47;;;;;;;;;;;;;;;16.88;51.03;101153.94;5048236;28;1989;-51
2024/04/06 11:27:12;;;;;;;;;;;;;;;16.61;51.90;101162.25;5065516;28;996;-49
2024/04/06 11:29:39;;;;;;;;;;;;;;;16.49;52.28;101153.38;5077467;28;1026;-48
2024/04/06 11:32:05;;;;;;;;;;;;;;;16.35;52.62;101163.97;5073773;28;1775;-49
2024/04/06 11:34:31;;;;;;;;;;;;;;;16.28;52.76;101152.41;5066439;28;1139;-49
2024/04/06 11:36:58;;;;;;;;;;;;;;;16.88;51.45;101151.19;5056638;28;1147;-47
2024/04/06 11:39:24;;;;;;;;;;;;;;;17.67;49.06;101145.72;5068186;28;1147;-51
2024/04/06 11:41:49;;;;;;;;;;;;;;;16.87;51.30;101132.19;5064858;28;1004;-50
2024/04/06 11:44:15;;;;;;;;;;;;;;;16.67;51.84;101130.97;5072667;28;860;-45
2024/04/06 11:46:41;;;;;;;;;;;;;;;16.43;52.42;101130.56;5076437;28;1917;-48
2024/04/06 11:49:06;;;;;;;;;;;;;;;16.34;52.56;101124.75;5075983;28;1450;-49
2024/04/06 11:51:32;;;;;;;;;;;;;;;16.25;52.66;101116.16;5076606;28;920;-49
2024/04/06 11:53:58;;;;;;;;;;;;;;;16.17;53.06;101113.06;5075757;28;1003;-49
2024/04/06 11:56:23;;;;;;;;;;;;;;;16.74;51.74;101117.03;5064806;28;1035;-51
2024/04/06 11:58:50;;;;;;;;;;;;;;;17.76;48.92;101110.25;5075879;28;1071;-49
2024/04/06 12:01:16;;;;;;;;;;;;;;;16.92;51.09;101119.34;5063619;28;2452;-50
2024/04/06 12:03:42;;;;;;;;;;;;;;;16.62;51.83;101108.16;5076098;28;1032;-49
2024/04/06 12:06:11;;;;;;;;;;;;;;;16.42;52.39;101098.72;5075956;28;1987;-51
2024/04/06 12:08:37;;;;;;;;;;;;;;;16.35;52.70;101093.44;5048136;28;1371;-49
2024/04/06 12:11:02;;;;;;;;;;;;;;;16.28;52.76;101083.81;5050662;28;1156;-47
2024/04/06 12:13:28;;;;;;;;;;;;;;;16.15;53.15;101083.16;5075989;28;1007;-46
2024/04/06 12:15:53;;;;;;;;;;;;;;;16.28;52.93;101081.06;5075768;28;1051;-48
2024/04/06 12:18:19;;;;;;;;;;;;;;;17.75;49.46;101086.59;5076022;28;1038;-49
2024/04/06 12:20:45;;;;;;;;;;;;;;;17.14;50.63;101087.28;5072832;28;925;-50
2024/04/06 12:23:10;;;;;;;;;;;;;;;16.76;51.58;101077.22;5064152;28;1514;-47
2024/04/06 12:25:36;;;;;;;;;;;;;;;16.48;52.31;101077.59;5063130;28;1914;-50
2024/04/06 12:28:01;;;;;;;;;;;;;;;16.40;52.65;101071.53;5059876;28;1355;-48
2024/04/06 12:30:27;;;;;;;;;;;;;;;16.32;52.71;101065.72;5040390;28;2238;-47
2024/04/06 12:32:52;;;;;;;;;;;;;;;16.26;53.04;101062.13;5056285;28;1036;-52
2024/04/06 12:35:18;;;;;;;;;;;;;;;16.28;53.21;101061.84;5069378;28;1151;-50
2024/04/06 12:37:43;;;;;;;;;;;;;;;17.75;49.31;101056.31;5068311;28;1107;-49
2024/04/06 12:40:10;;;;;;;;;;;;;;;17.34;50.37;101061.78;5045080;28;1339;-48